sensor_id;sensor_type;location;lat;lon;timestamp;temperature;humidity
39957;DHT22;48483;44.640;7.494;2022-07-23T00:01:03;29.40;66.10
39957;DHT22;48483;44.640;7.494;2022-07-23T00:03:29;29.30;66.00
39957;DHT22;48483;44.640;7.494;2022-07-23T00:05:56;29.30;66.10
39957;DHT22;48483;44.640;7.494;2022-07-23T00:08:23;29.30;66.00
39957;DHT22;48483;44.640;7.494;2022-07-23T00:10:50;29.30;65.70
39957;DHT22;48483;44.640;7.494;2022-07-23T00:13:16;29.20;66.10
39957;DHT22;48483;44.640;7.494;2022-07-23T00:15:44;29.20;66.80
39957;DHT22;48483;44.640;7.494;2022-07-23T00:18:11;29.20;67.00
39957;DHT22;48483;44.640;7.494;2022-07-23T00:20:38;29.20;67.30
39957;DHT22;48483;44.640;7.494;2022-07-23T00:23:05;29.20;66.90
39957;DHT22;48483;44.640;7.494;2022-07-23T00:25:31;29.10;67.00
39957;DHT22;48483;44.640;7.494;2022-07-23T00:27:59;29.10;67.30
39957;DHT22;48483;44.640;7.494;2022-07-23T00:30:25;29.20;67.00
39957;DHT22;48483;44.640;7.494;2022-07-23T00:32:55;29.20;66.70
39957;DHT22;48483;44.640;7.494;2022-07-23T00:35:24;29.10;67.10
39957;DHT22;48483;44.640;7.494;2022-07-23T00:37:51;29.00;67.60
39957;DHT22;48483;44.640;7.494;2022-07-23T00:40:17;29.10;67.80
39957;DHT22;48483;44.640;7.494;2022-07-23T00:42:44;29.10;68.00
39957;DHT22;48483;44.640;7.494;2022-07-23T00:45:11;29.10;68.00
39957;DHT22;48483;44.640;7.494;2022-07-23T00:47:38;29.00;68.00
39957;DHT22;48483;44.640;7.494;2022-07-23T00:50:08;29.00;68.10
39957;DHT22;48483;44.640;7.494;2022-07-23T00:52:36;29.00;68.90
39957;DHT22;48483;44.640;7.494;2022-07-23T00:55:04;28.90;69.10
39957;DHT22;48483;44.640;7.494;2022-07-23T00:57:32;28.80;69.60
39957;DHT22;48483;44.640;7.494;2022-07-23T00:59:58;28.90;69.90
39957;DHT22;48483;44.640;7.494;2022-07-23T01:02:26;28.80;69.90
39957;DHT22;48483;44.640;7.494;2022-07-23T01:04:53;28.80;69.80
39957;DHT22;48483;44.640;7.494;2022-07-23T01:07:22;28.80;68.50
39957;DHT22;48483;44.640;7.494;2022-07-23T01:09:50;28.80;67.50
39957;DHT22;48483;44.640;7.494;2022-07-23T01:12:17;28.90;66.80
39957;DHT22;48483;44.640;7.494;2022-07-23T01:14:44;29.00;67.50
39957;DHT22;48483;44.640;7.494;2022-07-23T01:17:10;29.00;67.30
39957;DHT22;48483;44.640;7.494;2022-07-23T01:19:37;29.00;68.00
39957;DHT22;48483;44.640;7.494;2022-07-23T01:22:04;28.90;68.40
39957;DHT22;48483;44.640;7.494;2022-07-23T01:24:33;28.80;68.60
39957;DHT22;48483;44.640;7.494;2022-07-23T01:27:05;28.80;68.80
39957;DHT22;48483;44.640;7.494;2022-07-23T01:29:34;28.80;68.90
39957;DHT22;48483;44.640;7.494;2022-07-23T01:32:05;28.80;70.10
39957;DHT22;48483;44.640;7.494;2022-07-23T01:34:31;28.70;70.80
39957;DHT22;48483;44.640;7.494;2022-07-23T01:36:58;28.70;70.90
39957;DHT22;48483;44.640;7.494;2022-07-23T01:39:25;28.60;71.60
39957;DHT22;48483;44.640;7.494;2022-07-23T01:41:54;28.60;72.10
39957;DHT22;48483;44.640;7.494;2022-07-23T01:44:21;28.50;72.30
39957;DHT22;48483;44.640;7.494;2022-07-23T01:46:48;28.40;72.80
39957;DHT22;48483;44.640;7.494;2022-07-23T01:49:16;28.30;73.10
39957;DHT22;48483;44.640;7.494;2022-07-23T01:51:46;28.30;73.40
39957;DHT22;48483;44.640;7.494;2022-07-23T01:54:39;28.30;73.80
39957;DHT22;48483;44.640;7.494;2022-07-23T01:57:08;28.20;74.00
39957;DHT22;48483;44.640;7.494;2022-07-23T01:59:35;28.20;74.20
39957;DHT22;48483;44.640;7.494;2022-07-23T02:02:03;28.10;74.50
39957;DHT22;48483;44.640;7.494;2022-07-23T02:04:31;28.10;74.90
39957;DHT22;48483;44.640;7.494;2022-07-23T02:07:02;28.00;75.00
39957;DHT22;48483;44.640;7.494;2022-07-23T02:09:29;28.00;75.20
39957;DHT22;48483;44.640;7.494;2022-07-23T02:11:56;28.00;75.60
39957;DHT22;48483;44.640;7.494;2022-07-23T02:14:24;27.90;75.90
39957;DHT22;48483;44.640;7.494;2022-07-23T02:16:50;27.90;76.10
39957;DHT22;48483;44.640;7.494;2022-07-23T02:19:17;27.90;76.40
39957;DHT22;48483;44.640;7.494;2022-07-23T02:21:44;27.90;76.90
39957;DHT22;48483;44.640;7.494;2022-07-23T02:24:11;27.80;77.00
39957;DHT22;48483;44.640;7.494;2022-07-23T02:26:38;27.80;77.30
39957;DHT22;48483;44.640;7.494;2022-07-23T02:29:06;27.90;77.30
39957;DHT22;48483;44.640;7.494;2022-07-23T02:31:35;27.90;77.60
39957;DHT22;48483;44.640;7.494;2022-07-23T02:34:02;27.80;77.80
39957;DHT22;48483;44.640;7.494;2022-07-23T02:36:29;27.90;77.90
39957;DHT22;48483;44.640;7.494;2022-07-23T02:38:57;27.90;77.50
39957;DHT22;48483;44.640;7.494;2022-07-23T02:41:24;27.90;77.70
39957;DHT22;48483;44.640;7.494;2022-07-23T02:43:51;27.80;77.80
39957;DHT22;48483;44.640;7.494;2022-07-23T02:46:18;27.70;78.80
39957;DHT22;48483;44.640;7.494;2022-07-23T02:48:47;27.60;79.20
39957;DHT22;48483;44.640;7.494;2022-07-23T02:51:14;27.60;79.70
39957;DHT22;48483;44.640;7.494;2022-07-23T02:53:44;27.60;80.20
39957;DHT22;48483;44.640;7.494;2022-07-23T02:56:10;27.50;80.70
39957;DHT22;48483;44.640;7.494;2022-07-23T02:58:37;27.50;81.40
39957;DHT22;48483;44.640;7.494;2022-07-23T03:01:05;27.50;81.70
39957;DHT22;48483;44.640;7.494;2022-07-23T03:03:31;27.40;81.70
39957;DHT22;48483;44.640;7.494;2022-07-23T03:06:00;27.40;81.60
39957;DHT22;48483;44.640;7.494;2022-07-23T03:08:27;27.40;81.60
39957;DHT22;48483;44.640;7.494;2022-07-23T03:10:54;27.40;82.00
39957;DHT22;48483;44.640;7.494;2022-07-23T03:13:21;27.40;81.80
39957;DHT22;48483;44.640;7.494;2022-07-23T03:15:47;27.50;81.70
39957;DHT22;48483;44.640;7.494;2022-07-23T03:18:14;27.50;81.60
39957;DHT22;48483;44.640;7.494;2022-07-23T03:20:41;27.50;81.20
39957;DHT22;48483;44.640;7.494;2022-07-23T03:23:10;27.50;80.90
39957;DHT22;48483;44.640;7.494;2022-07-23T03:25:38;27.50;80.70
39957;DHT22;48483;44.640;7.494;2022-07-23T03:28:04;27.50;80.40
39957;DHT22;48483;44.640;7.494;2022-07-23T03:30:31;27.50;80.00
39957;DHT22;48483;44.640;7.494;2022-07-23T03:32:58;27.50;78.90
39957;DHT22;48483;44.640;7.494;2022-07-23T03:35:25;27.60;78.00
39957;DHT22;48483;44.640;7.494;2022-07-23T03:38:11;27.60;77.40
39957;DHT22;48483;44.640;7.494;2022-07-23T03:40:38;27.60;76.40
39957;DHT22;48483;44.640;7.494;2022-07-23T03:43:05;27.70;75.90
39957;DHT22;48483;44.640;7.494;2022-07-23T03:45:31;27.70;75.60
39957;DHT22;48483;44.640;7.494;2022-07-23T03:47:59;27.60;75.10
39957;DHT22;48483;44.640;7.494;2022-07-23T03:50:26;27.60;74.90
39957;DHT22;48483;44.640;7.494;2022-07-23T03:52:53;27.70;75.00
39957;DHT22;48483;44.640;7.494;2022-07-23T03:55:22;27.60;74.90
39957;DHT22;48483;44.640;7.494;2022-07-23T03:57:48;27.60;75.40
39957;DHT22;48483;44.640;7.494;2022-07-23T04:00:15;27.60;75.30
39957;DHT22;48483;44.640;7.494;2022-07-23T04:02:44;27.50;75.10
39957;DHT22;48483;44.640;7.494;2022-07-23T04:05:12;27.60;75.40
39957;DHT22;48483;44.640;7.494;2022-07-23T04:07:41;27.50;75.70
39957;DHT22;48483;44.640;7.494;2022-07-23T04:10:08;27.50;77.00
39957;DHT22;48483;44.640;7.494;2022-07-23T04:12:36;27.40;78.70
39957;DHT22;48483;44.640;7.494;2022-07-23T04:15:06;27.40;79.60
39957;DHT22;48483;44.640;7.494;2022-07-23T04:17:33;27.40;80.20
39957;DHT22;48483;44.640;7.494;2022-07-23T04:20:00;27.30;80.20
39957;DHT22;48483;44.640;7.494;2022-07-23T04:22:32;27.30;80.60
39957;DHT22;48483;44.640;7.494;2022-07-23T04:24:59;27.30;80.40
39957;DHT22;48483;44.640;7.494;2022-07-23T04:27:26;27.30;80.80
39957;DHT22;48483;44.640;7.494;2022-07-23T04:29:54;27.20;81.10
39957;DHT22;48483;44.640;7.494;2022-07-23T04:32:21;27.20;81.50
39957;DHT22;48483;44.640;7.494;2022-07-23T04:34:48;27.20;81.20
39957;DHT22;48483;44.640;7.494;2022-07-23T04:37:15;27.20;81.00
39957;DHT22;48483;44.640;7.494;2022-07-23T04:39:41;27.10;81.20
39957;DHT22;48483;44.640;7.494;2022-07-23T04:42:08;27.10;81.00
39957;DHT22;48483;44.640;7.494;2022-07-23T04:44:35;27.10;80.30
39957;DHT22;48483;44.640;7.494;2022-07-23T04:47:05;27.10;79.60
39957;DHT22;48483;44.640;7.494;2022-07-23T04:49:33;27.10;80.00
39957;DHT22;48483;44.640;7.494;2022-07-23T04:52:00;27.10;80.20
39957;DHT22;48483;44.640;7.494;2022-07-23T04:54:27;27.10;80.70
39957;DHT22;48483;44.640;7.494;2022-07-23T04:56:53;27.20;80.90
39957;DHT22;48483;44.640;7.494;2022-07-23T04:59:20;27.20;80.10
39957;DHT22;48483;44.640;7.494;2022-07-23T05:01:50;27.20;80.50
39957;DHT22;48483;44.640;7.494;2022-07-23T05:04:19;27.20;79.60
39957;DHT22;48483;44.640;7.494;2022-07-23T05:06:47;27.30;79.20
39957;DHT22;48483;44.640;7.494;2022-07-23T05:09:14;27.30;78.90
39957;DHT22;48483;44.640;7.494;2022-07-23T05:11:41;27.30;78.70
39957;DHT22;48483;44.640;7.494;2022-07-23T05:14:08;27.40;78.10
39957;DHT22;48483;44.640;7.494;2022-07-23T05:16:34;27.40;78.00
39957;DHT22;48483;44.640;7.494;2022-07-23T05:19:08;27.40;77.70
39957;DHT22;48483;44.640;7.494;2022-07-23T05:21:37;27.50;77.30
39957;DHT22;48483;44.640;7.494;2022-07-23T05:24:05;27.40;77.00
39957;DHT22;48483;44.640;7.494;2022-07-23T05:26:31;27.50;76.60
39957;DHT22;48483;44.640;7.494;2022-07-23T05:28:58;27.50;76.30
39957;DHT22;48483;44.640;7.494;2022-07-23T05:31:25;27.60;75.80
39957;DHT22;48483;44.640;7.494;2022-07-23T05:33:52;27.60;75.20
39957;DHT22;48483;44.640;7.494;2022-07-23T05:36:19;27.60;74.70
39957;DHT22;48483;44.640;7.494;2022-07-23T05:38:58;27.60;74.40
39957;DHT22;48483;44.640;7.494;2022-07-23T05:41:27;27.60;73.90
39957;DHT22;48483;44.640;7.494;2022-07-23T05:43:54;27.60;73.40
39957;DHT22;48483;44.640;7.494;2022-07-23T05:46:21;27.60;73.60
39957;DHT22;48483;44.640;7.494;2022-07-23T05:48:52;27.60;73.60
39957;DHT22;48483;44.640;7.494;2022-07-23T05:51:37;27.60;73.60
39957;DHT22;48483;44.640;7.494;2022-07-23T05:54:05;27.70;73.20
39957;DHT22;48483;44.640;7.494;2022-07-23T05:56:36;27.70;72.20
39957;DHT22;48483;44.640;7.494;2022-07-23T05:59:03;27.70;71.90
39957;DHT22;48483;44.640;7.494;2022-07-23T06:01:30;27.80;71.50
39957;DHT22;48483;44.640;7.494;2022-07-23T06:04:05;27.90;71.20
39957;DHT22;48483;44.640;7.494;2022-07-23T06:06:38;28.00;69.80
39957;DHT22;48483;44.640;7.494;2022-07-23T06:09:08;28.00;68.50
39957;DHT22;48483;44.640;7.494;2022-07-23T06:11:36;27.80;68.70
39957;DHT22;48483;44.640;7.494;2022-07-23T06:14:03;27.90;69.10
39957;DHT22;48483;44.640;7.494;2022-07-23T06:16:45;28.00;69.10
39957;DHT22;48483;44.640;7.494;2022-07-23T06:19:12;28.10;68.00
39957;DHT22;48483;44.640;7.494;2022-07-23T06:21:39;28.20;67.90
39957;DHT22;48483;44.640;7.494;2022-07-23T06:24:08;28.20;67.70
39957;DHT22;48483;44.640;7.494;2022-07-23T06:26:35;28.20;66.50
39957;DHT22;48483;44.640;7.494;2022-07-23T06:29:02;28.40;67.20
39957;DHT22;48483;44.640;7.494;2022-07-23T06:31:29;28.40;65.50
39957;DHT22;48483;44.640;7.494;2022-07-23T06:33:55;28.40;65.40
39957;DHT22;48483;44.640;7.494;2022-07-23T06:36:22;28.50;65.10
39957;DHT22;48483;44.640;7.494;2022-07-23T06:38:49;28.60;64.70
39957;DHT22;48483;44.640;7.494;2022-07-23T06:41:18;28.70;64.80
39957;DHT22;48483;44.640;7.494;2022-07-23T06:43:44;28.80;64.70
39957;DHT22;48483;44.640;7.494;2022-07-23T06:46:13;28.90;64.60
39957;DHT22;48483;44.640;7.494;2022-07-23T06:48:40;29.10;64.10
39957;DHT22;48483;44.640;7.494;2022-07-23T06:51:07;29.00;63.40
39957;DHT22;48483;44.640;7.494;2022-07-23T06:53:33;29.00;63.40
39957;DHT22;48483;44.640;7.494;2022-07-23T06:56:01;29.10;63.40
39957;DHT22;48483;44.640;7.494;2022-07-23T06:58:29;29.10;62.60
39957;DHT22;48483;44.640;7.494;2022-07-23T07:00:56;29.00;62.90
39957;DHT22;48483;44.640;7.494;2022-07-23T07:03:23;29.10;63.00
39957;DHT22;48483;44.640;7.494;2022-07-23T07:05:50;29.30;62.70
39957;DHT22;48483;44.640;7.494;2022-07-23T07:08:17;29.40;62.30
39957;DHT22;48483;44.640;7.494;2022-07-23T07:10:43;29.50;62.00
39957;DHT22;48483;44.640;7.494;2022-07-23T07:13:10;29.60;61.80
39957;DHT22;48483;44.640;7.494;2022-07-23T07:15:38;29.60;61.80
39957;DHT22;48483;44.640;7.494;2022-07-23T07:18:05;29.70;62.10
39957;DHT22;48483;44.640;7.494;2022-07-23T07:20:32;29.70;61.70
39957;DHT22;48483;44.640;7.494;2022-07-23T07:22:58;29.80;61.80
39957;DHT22;48483;44.640;7.494;2022-07-23T07:25:25;29.90;60.90
39957;DHT22;48483;44.640;7.494;2022-07-23T07:27:52;30.00;60.00
39957;DHT22;48483;44.640;7.494;2022-07-23T07:30:19;29.90;59.50
39957;DHT22;48483;44.640;7.494;2022-07-23T07:32:47;29.90;59.80
39957;DHT22;48483;44.640;7.494;2022-07-23T07:35:13;30.00;59.80
39957;DHT22;48483;44.640;7.494;2022-07-23T07:37:40;30.10;59.50
39957;DHT22;48483;44.640;7.494;2022-07-23T07:40:08;30.10;59.20
39957;DHT22;48483;44.640;7.494;2022-07-23T07:42:35;30.20;59.70
39957;DHT22;48483;44.640;7.494;2022-07-23T07:45:10;30.40;60.40
39957;DHT22;48483;44.640;7.494;2022-07-23T07:47:37;30.40;59.90
39957;DHT22;48483;44.640;7.494;2022-07-23T07:50:05;30.40;59.80
39957;DHT22;48483;44.640;7.494;2022-07-23T07:52:32;30.40;60.10
39957;DHT22;48483;44.640;7.494;2022-07-23T07:54:59;30.40;61.00
39957;DHT22;48483;44.640;7.494;2022-07-23T07:57:26;30.30;61.20
39957;DHT22;48483;44.640;7.494;2022-07-23T07:59:52;30.30;60.10
39957;DHT22;48483;44.640;7.494;2022-07-23T08:02:19;30.40;60.00
39957;DHT22;48483;44.640;7.494;2022-07-23T08:04:46;30.50;60.80
39957;DHT22;48483;44.640;7.494;2022-07-23T08:07:14;30.60;60.70
39957;DHT22;48483;44.640;7.494;2022-07-23T08:09:41;30.70;59.50
39957;DHT22;48483;44.640;7.494;2022-07-23T08:12:08;30.60;59.80
39957;DHT22;48483;44.640;7.494;2022-07-23T08:14:35;30.70;60.30
39957;DHT22;48483;44.640;7.494;2022-07-23T08:17:01;30.80;60.20
39957;DHT22;48483;44.640;7.494;2022-07-23T08:19:28;30.90;59.00
39957;DHT22;48483;44.640;7.494;2022-07-23T08:21:55;31.00;58.90
39957;DHT22;48483;44.640;7.494;2022-07-23T08:24:23;31.00;58.60
39957;DHT22;48483;44.640;7.494;2022-07-23T08:26:49;31.00;58.10
39957;DHT22;48483;44.640;7.494;2022-07-23T08:29:16;30.90;57.80
39957;DHT22;48483;44.640;7.494;2022-07-23T08:31:43;31.00;58.10
39957;DHT22;48483;44.640;7.494;2022-07-23T08:34:11;31.10;58.20
39957;DHT22;48483;44.640;7.494;2022-07-23T08:36:38;31.30;57.10
39957;DHT22;48483;44.640;7.494;2022-07-23T08:39:05;31.20;55.80
39957;DHT22;48483;44.640;7.494;2022-07-23T08:41:34;31.10;56.50
39957;DHT22;48483;44.640;7.494;2022-07-23T08:44:02;31.20;56.60
39957;DHT22;48483;44.640;7.494;2022-07-23T08:46:28;31.20;56.70
39957;DHT22;48483;44.640;7.494;2022-07-23T08:48:56;31.40;56.70
39957;DHT22;48483;44.640;7.494;2022-07-23T08:51:26;31.50;56.60
39957;DHT22;48483;44.640;7.494;2022-07-23T08:53:53;31.50;56.90
39957;DHT22;48483;44.640;7.494;2022-07-23T08:56:22;31.50;57.70
39957;DHT22;48483;44.640;7.494;2022-07-23T08:58:50;31.40;57.20
39957;DHT22;48483;44.640;7.494;2022-07-23T09:01:19;31.40;57.30
39957;DHT22;48483;44.640;7.494;2022-07-23T09:03:46;31.30;57.50
39957;DHT22;48483;44.640;7.494;2022-07-23T09:06:12;31.40;57.90
39957;DHT22;48483;44.640;7.494;2022-07-23T09:08:40;31.40;57.40
39957;DHT22;48483;44.640;7.494;2022-07-23T09:11:09;31.30;56.00
39957;DHT22;48483;44.640;7.494;2022-07-23T09:13:38;31.30;56.30
39957;DHT22;48483;44.640;7.494;2022-07-23T09:16:08;31.30;57.20
39957;DHT22;48483;44.640;7.494;2022-07-23T09:18:39;31.30;56.80
39957;DHT22;48483;44.640;7.494;2022-07-23T09:21:14;31.30;57.00
39957;DHT22;48483;44.640;7.494;2022-07-23T09:23:42;31.40;57.70
39957;DHT22;48483;44.640;7.494;2022-07-23T09:26:22;31.40;57.30
39957;DHT22;48483;44.640;7.494;2022-07-23T09:28:54;31.50;57.20
39957;DHT22;48483;44.640;7.494;2022-07-23T09:31:48;31.40;57.10
39957;DHT22;48483;44.640;7.494;2022-07-23T09:34:17;31.40;57.50
39957;DHT22;48483;44.640;7.494;2022-07-23T09:36:45;31.40;57.90
39957;DHT22;48483;44.640;7.494;2022-07-23T09:39:13;31.40;58.00
39957;DHT22;48483;44.640;7.494;2022-07-23T09:41:43;31.40;58.20
39957;DHT22;48483;44.640;7.494;2022-07-23T09:44:14;31.50;58.60
39957;DHT22;48483;44.640;7.494;2022-07-23T09:46:43;31.50;58.80
39957;DHT22;48483;44.640;7.494;2022-07-23T09:49:17;31.50;58.30
39957;DHT22;48483;44.640;7.494;2022-07-23T09:51:48;31.50;57.20
39957;DHT22;48483;44.640;7.494;2022-07-23T09:54:27;31.30;57.80
39957;DHT22;48483;44.640;7.494;2022-07-23T09:56:57;31.40;58.10
39957;DHT22;48483;44.640;7.494;2022-07-23T09:59:26;31.30;58.50
39957;DHT22;48483;44.640;7.494;2022-07-23T10:01:54;31.30;58.90
39957;DHT22;48483;44.640;7.494;2022-07-23T10:04:24;31.30;59.40
39957;DHT22;48483;44.640;7.494;2022-07-23T10:07:14;31.30;60.10
39957;DHT22;48483;44.640;7.494;2022-07-23T10:10:02;31.40;59.50
39957;DHT22;48483;44.640;7.494;2022-07-23T10:12:48;31.50;59.60
39957;DHT22;48483;44.640;7.494;2022-07-23T10:15:25;31.30;59.80
39957;DHT22;48483;44.640;7.494;2022-07-23T10:17:52;31.40;60.00
39957;DHT22;48483;44.640;7.494;2022-07-23T10:20:20;31.40;60.00
39957;DHT22;48483;44.640;7.494;2022-07-23T10:22:53;31.40;60.00
39957;DHT22;48483;44.640;7.494;2022-07-23T10:25:26;31.50;60.10
39957;DHT22;48483;44.640;7.494;2022-07-23T10:28:11;31.50;60.50
39957;DHT22;48483;44.640;7.494;2022-07-23T10:30:45;31.50;60.60
39957;DHT22;48483;44.640;7.494;2022-07-23T10:33:21;31.70;60.80
39957;DHT22;48483;44.640;7.494;2022-07-23T10:35:56;31.60;60.40
39957;DHT22;48483;44.640;7.494;2022-07-23T10:38:27;31.50;60.00
39957;DHT22;48483;44.640;7.494;2022-07-23T10:40:56;31.50;60.70
39957;DHT22;48483;44.640;7.494;2022-07-23T10:43:23;31.50;60.60
39957;DHT22;48483;44.640;7.494;2022-07-23T10:45:50;31.70;60.50
39957;DHT22;48483;44.640;7.494;2022-07-23T10:48:18;31.60;59.90
39957;DHT22;48483;44.640;7.494;2022-07-23T10:51:09;31.50;60.20
39957;DHT22;48483;44.640;7.494;2022-07-23T10:53:56;31.70;59.30
39957;DHT22;48483;44.640;7.494;2022-07-23T10:57:04;31.50;58.60
39957;DHT22;48483;44.640;7.494;2022-07-23T10:59:31;31.40;58.00
39957;DHT22;48483;44.640;7.494;2022-07-23T11:02:22;31.40;57.00
39957;DHT22;48483;44.640;7.494;2022-07-23T11:04:51;31.40;57.20
39957;DHT22;48483;44.640;7.494;2022-07-23T11:07:20;31.40;57.90
39957;DHT22;48483;44.640;7.494;2022-07-23T11:09:46;31.50;57.20
39957;DHT22;48483;44.640;7.494;2022-07-23T11:12:35;31.50;57.30
39957;DHT22;48483;44.640;7.494;2022-07-23T11:15:13;31.50;57.80
39957;DHT22;48483;44.640;7.494;2022-07-23T11:17:58;31.50;57.60
39957;DHT22;48483;44.640;7.494;2022-07-23T11:20:26;31.50;57.90
39957;DHT22;48483;44.640;7.494;2022-07-23T11:22:57;31.50;58.30
39957;DHT22;48483;44.640;7.494;2022-07-23T11:25:34;31.60;57.80
39957;DHT22;48483;44.640;7.494;2022-07-23T11:28:10;31.70;57.20
39957;DHT22;48483;44.640;7.494;2022-07-23T11:30:39;31.50;57.20
39957;DHT22;48483;44.640;7.494;2022-07-23T11:33:22;31.70;57.20
39957;DHT22;48483;44.640;7.494;2022-07-23T11:36:04;31.60;56.60
39957;DHT22;48483;44.640;7.494;2022-07-23T11:38:32;31.70;57.50
39957;DHT22;48483;44.640;7.494;2022-07-23T11:40:59;31.80;58.10
39957;DHT22;48483;44.640;7.494;2022-07-23T11:43:26;32.00;55.50
39957;DHT22;48483;44.640;7.494;2022-07-23T11:45:56;32.00;54.60
39957;DHT22;48483;44.640;7.494;2022-07-23T11:48:25;32.20;54.60
39957;DHT22;48483;44.640;7.494;2022-07-23T11:50:53;32.20;54.30
39957;DHT22;48483;44.640;7.494;2022-07-23T11:53:24;32.20;54.60
39957;DHT22;48483;44.640;7.494;2022-07-23T11:55:53;32.10;54.80
39957;DHT22;48483;44.640;7.494;2022-07-23T11:58:21;32.20;54.40
39957;DHT22;48483;44.640;7.494;2022-07-23T12:00:48;32.20;54.30
39957;DHT22;48483;44.640;7.494;2022-07-23T12:03:17;32.30;54.30
39957;DHT22;48483;44.640;7.494;2022-07-23T12:05:43;32.20;52.80
39957;DHT22;48483;44.640;7.494;2022-07-23T12:08:10;32.10;51.70
39957;DHT22;48483;44.640;7.494;2022-07-23T12:10:39;32.20;51.90
39957;DHT22;48483;44.640;7.494;2022-07-23T12:13:10;32.30;52.30
39957;DHT22;48483;44.640;7.494;2022-07-23T12:15:40;32.30;52.40
39957;DHT22;48483;44.640;7.494;2022-07-23T12:18:09;32.30;52.50
39957;DHT22;48483;44.640;7.494;2022-07-23T12:20:38;32.40;53.50
39957;DHT22;48483;44.640;7.494;2022-07-23T12:23:07;32.50;52.80
39957;DHT22;48483;44.640;7.494;2022-07-23T12:25:36;32.50;51.80
39957;DHT22;48483;44.640;7.494;2022-07-23T12:28:05;32.50;50.60
39957;DHT22;48483;44.640;7.494;2022-07-23T12:30:38;32.40;50.60
39957;DHT22;48483;44.640;7.494;2022-07-23T12:33:06;32.40;50.50
39957;DHT22;48483;44.640;7.494;2022-07-23T12:35:36;32.40;49.40
39957;DHT22;48483;44.640;7.494;2022-07-23T12:38:05;32.50;50.10
39957;DHT22;48483;44.640;7.494;2022-07-23T12:40:34;32.50;51.20
39957;DHT22;48483;44.640;7.494;2022-07-23T12:43:02;32.40;52.00
39957;DHT22;48483;44.640;7.494;2022-07-23T12:45:47;32.30;48.60
39957;DHT22;48483;44.640;7.494;2022-07-23T12:48:24;32.30;49.20
39957;DHT22;48483;44.640;7.494;2022-07-23T12:50:54;32.50;51.60
39957;DHT22;48483;44.640;7.494;2022-07-23T12:53:23;32.50;51.10
39957;DHT22;48483;44.640;7.494;2022-07-23T12:55:56;32.50;50.80
39957;DHT22;48483;44.640;7.494;2022-07-23T12:58:25;32.50;50.80
39957;DHT22;48483;44.640;7.494;2022-07-23T13:01:04;32.50;51.00
39957;DHT22;48483;44.640;7.494;2022-07-23T13:03:34;32.40;49.50
39957;DHT22;48483;44.640;7.494;2022-07-23T13:06:02;32.40;50.50
39957;DHT22;48483;44.640;7.494;2022-07-23T13:08:30;32.40;51.10
39957;DHT22;48483;44.640;7.494;2022-07-23T13:10:58;32.50;51.60
39957;DHT22;48483;44.640;7.494;2022-07-23T13:13:26;32.50;51.00
39957;DHT22;48483;44.640;7.494;2022-07-23T13:15:53;32.50;50.90
39957;DHT22;48483;44.640;7.494;2022-07-23T13:18:22;32.60;51.60
39957;DHT22;48483;44.640;7.494;2022-07-23T13:20:49;32.60;51.60
39957;DHT22;48483;44.640;7.494;2022-07-23T13:23:16;32.50;50.80
39957;DHT22;48483;44.640;7.494;2022-07-23T13:25:43;32.50;50.50
39957;DHT22;48483;44.640;7.494;2022-07-23T13:28:10;32.60;50.40
39957;DHT22;48483;44.640;7.494;2022-07-23T13:30:37;32.60;50.50
39957;DHT22;48483;44.640;7.494;2022-07-23T13:33:04;32.70;50.70
39957;DHT22;48483;44.640;7.494;2022-07-23T13:35:33;32.70;49.90
39957;DHT22;48483;44.640;7.494;2022-07-23T13:38:00;32.70;50.30
39957;DHT22;48483;44.640;7.494;2022-07-23T13:40:27;32.60;50.40
39957;DHT22;48483;44.640;7.494;2022-07-23T13:42:54;32.70;51.40
39957;DHT22;48483;44.640;7.494;2022-07-23T13:45:21;32.60;52.00
39957;DHT22;48483;44.640;7.494;2022-07-23T13:47:48;32.60;51.60
39957;DHT22;48483;44.640;7.494;2022-07-23T13:50:14;32.60;51.90
39957;DHT22;48483;44.640;7.494;2022-07-23T13:52:43;32.70;51.50
39957;DHT22;48483;44.640;7.494;2022-07-23T13:55:10;32.70;51.30
39957;DHT22;48483;44.640;7.494;2022-07-23T13:57:37;32.80;51.80
39957;DHT22;48483;44.640;7.494;2022-07-23T14:00:05;32.80;51.50
39957;DHT22;48483;44.640;7.494;2022-07-23T14:02:35;32.80;51.50
39957;DHT22;48483;44.640;7.494;2022-07-23T14:05:03;32.80;51.00
39957;DHT22;48483;44.640;7.494;2022-07-23T14:07:29;32.80;51.10
39957;DHT22;48483;44.640;7.494;2022-07-23T14:09:58;32.80;49.90
39957;DHT22;48483;44.640;7.494;2022-07-23T14:12:24;32.60;50.20
39957;DHT22;48483;44.640;7.494;2022-07-23T14:14:51;32.70;49.80
39957;DHT22;48483;44.640;7.494;2022-07-23T14:17:18;32.70;49.90
39957;DHT22;48483;44.640;7.494;2022-07-23T14:19:45;32.70;50.10
39957;DHT22;48483;44.640;7.494;2022-07-23T14:22:12;32.80;50.10
39957;DHT22;48483;44.640;7.494;2022-07-23T14:24:39;32.80;49.50
39957;DHT22;48483;44.640;7.494;2022-07-23T14:27:07;32.80;49.10
39957;DHT22;48483;44.640;7.494;2022-07-23T14:29:34;32.80;48.00
39957;DHT22;48483;44.640;7.494;2022-07-23T14:32:01;32.80;48.90
39957;DHT22;48483;44.640;7.494;2022-07-23T14:34:27;32.80;49.30
39957;DHT22;48483;44.640;7.494;2022-07-23T14:36:54;32.80;49.90
39957;DHT22;48483;44.640;7.494;2022-07-23T14:39:21;32.80;50.30
39957;DHT22;48483;44.640;7.494;2022-07-23T14:41:48;32.90;50.50
39957;DHT22;48483;44.640;7.494;2022-07-23T14:44:16;32.90;50.70
39957;DHT22;48483;44.640;7.494;2022-07-23T14:46:43;32.90;50.80
39957;DHT22;48483;44.640;7.494;2022-07-23T14:49:10;32.90;50.60
39957;DHT22;48483;44.640;7.494;2022-07-23T14:51:36;32.90;50.70
39957;DHT22;48483;44.640;7.494;2022-07-23T14:54:03;33.00;50.70
39957;DHT22;48483;44.640;7.494;2022-07-23T14:56:30;33.00;50.60
39957;DHT22;48483;44.640;7.494;2022-07-23T14:58:57;33.10;50.50
39957;DHT22;48483;44.640;7.494;2022-07-23T15:01:25;33.00;50.60
39957;DHT22;48483;44.640;7.494;2022-07-23T15:03:52;32.90;51.10
39957;DHT22;48483;44.640;7.494;2022-07-23T15:06:19;32.80;51.80
39957;DHT22;48483;44.640;7.494;2022-07-23T15:08:45;32.80;52.90
39957;DHT22;48483;44.640;7.494;2022-07-23T15:11:12;32.80;54.80
39957;DHT22;48483;44.640;7.494;2022-07-23T15:13:39;32.80;55.70
39957;DHT22;48483;44.640;7.494;2022-07-23T15:16:07;32.80;55.30
39957;DHT22;48483;44.640;7.494;2022-07-23T15:18:35;32.80;54.70
39957;DHT22;48483;44.640;7.494;2022-07-23T15:21:02;32.80;54.70
39957;DHT22;48483;44.640;7.494;2022-07-23T15:23:29;32.90;55.90
39957;DHT22;48483;44.640;7.494;2022-07-23T15:25:56;33.00;56.30
39957;DHT22;48483;44.640;7.494;2022-07-23T15:28:23;33.00;56.50
39957;DHT22;48483;44.640;7.494;2022-07-23T15:30:50;33.00;56.70
39957;DHT22;48483;44.640;7.494;2022-07-23T15:33:17;33.00;56.90
39957;DHT22;48483;44.640;7.494;2022-07-23T15:35:46;32.90;57.40
39957;DHT22;48483;44.640;7.494;2022-07-23T15:38:13;33.00;57.50
39957;DHT22;48483;44.640;7.494;2022-07-23T15:40:40;33.00;58.20